createdAt,value
2023-05-31T00:01:26.251Z,102010.84
2023-05-31T00:03:53.485Z,102019.69
2023-05-31T00:06:20.765Z,102021.97
2023-05-31T00:08:47.992Z,102022.03
2023-05-31T00:11:15.321Z,102021.56
2023-05-31T00:13:42.608Z,102025.06
2023-05-31T00:16:25.220Z,102022.84
2023-05-31T00:18:59.226Z,102024.44
2023-05-31T00:21:26.805Z,102021.59
2023-05-31T00:23:54.186Z,102019.66
2023-05-31T00:26:22.299Z,102025.88
2023-05-31T00:28:50.493Z,102027.06
2023-05-31T00:31:17.768Z,102025.88
2023-05-31T00:33:45.582Z,102028.56
2023-05-31T00:36:13.078Z,102023.44
2023-05-31T00:38:40.346Z,102024.25
2023-05-31T00:41:11.387Z,102026.25
2023-05-31T00:43:38.583Z,102022.25
2023-05-31T00:46:07.219Z,102020.59
2023-05-31T00:48:34.606Z,102021.00
2023-05-31T00:51:02.641Z,102023.91
2023-05-31T00:53:30.040Z,102030.38
2023-05-31T00:55:59.226Z,102033.19
2023-05-31T00:58:28.773Z,102040.13
2023-05-31T01:00:56.530Z,102038.63
2023-05-31T01:03:24.349Z,102034.44
2023-05-31T01:05:51.942Z,102033.69
2023-05-31T01:08:20.793Z,102036.75
2023-05-31T01:10:48.492Z,102029.97
2023-05-31T01:13:38.239Z,102029.88
2023-05-31T01:16:31.014Z,102028.56
2023-05-31T01:19:04.155Z,102025.81
2023-05-31T01:21:58.807Z,102025.06
2023-05-31T01:25:36.605Z,102031.63
2023-05-31T01:28:11.621Z,102035.72
2023-05-31T01:30:39.480Z,102036.47
2023-05-31T01:33:12.639Z,102044.59
2023-05-31T01:35:39.901Z,102038.91
2023-05-31T01:38:07.111Z,102043.06
2023-05-31T01:40:36.677Z,102039.25
2023-05-31T01:43:06.953Z,102044.47
2023-05-31T01:45:36.229Z,102046.53
2023-05-31T01:48:07.054Z,102045.31
2023-05-31T01:50:36.743Z,102043.47
2023-05-31T01:53:05.642Z,102043.19
2023-05-31T01:55:33.547Z,102030.00
2023-05-31T01:58:02.646Z,102044.97
2023-05-31T02:00:31.803Z,102043.06
2023-05-31T02:02:59.507Z,102040.69
2023-05-31T02:05:26.750Z,102037.63
2023-05-31T02:07:55.270Z,102034.97
2023-05-31T02:10:22.843Z,102039.06
2023-05-31T02:12:55.722Z,102035.81
2023-05-31T02:15:24.221Z,102032.91
2023-05-31T02:17:52.508Z,102035.63
2023-05-31T02:20:20.151Z,102032.41
2023-05-31T02:22:48.683Z,102027.50
2023-05-31T02:25:16.687Z,102032.25
2023-05-31T02:27:44.287Z,102034.31
2023-05-31T02:30:12.134Z,102034.56
2023-05-31T02:32:39.582Z,102032.41
2023-05-31T02:35:09.942Z,102025.66
2023-05-31T02:37:39.359Z,102036.16
2023-05-31T02:40:09.538Z,102041.94
2023-05-31T02:42:40.138Z,102034.66
2023-05-31T02:45:11.541Z,102045.22
2023-05-31T02:47:40.384Z,102041.28
2023-05-31T02:50:10.416Z,102035.97
2023-05-31T02:52:38.763Z,102044.25
2023-05-31T02:55:07.134Z,102042.28
2023-05-31T02:57:34.385Z,102040.06
2023-05-31T03:00:16.662Z,102046.97
2023-05-31T03:02:44.086Z,102041.53
2023-05-31T03:05:11.550Z,102043.25
2023-05-31T03:07:38.910Z,102039.28
2023-05-31T03:10:07.976Z,102041.69
2023-05-31T03:12:35.415Z,102043.16
2023-05-31T03:15:03.452Z,102043.59
2023-05-31T03:17:31.089Z,102051.25
2023-05-31T03:19:59.168Z,102043.22
2023-05-31T03:22:26.925Z,102048.81
2023-05-31T03:24:54.248Z,102048.13
2023-05-31T03:27:21.447Z,102044.84
2023-05-31T03:29:48.729Z,102050.06
2023-05-31T03:32:16.149Z,102048.16
2023-05-31T03:34:43.388Z,102048.19
2023-05-31T03:37:10.705Z,102045.41
2023-05-31T03:39:37.953Z,102046.63
2023-05-31T03:42:07.283Z,102047.31
2023-05-31T03:44:34.557Z,102044.13
2023-05-31T03:47:01.776Z,102048.19
2023-05-31T03:49:28.988Z,102042.38
2023-05-31T03:51:56.195Z,102040.66
2023-05-31T03:54:23.383Z,102035.63
2023-05-31T03:56:50.663Z,102050.50
2023-05-31T03:59:17.965Z,102037.41
2023-05-31T04:01:45.296Z,102043.06
2023-05-31T04:04:12.662Z,102038.63
2023-05-31T04:06:40.049Z,102039.88
2023-05-31T04:09:07.429Z,102038.78
2023-05-31T04:11:34.777Z,102042.97
2023-05-31T04:14:02.126Z,102048.69
2023-05-31T04:16:29.512Z,102055.00
2023-05-31T04:18:56.829Z,102054.38
2023-05-31T04:21:24.076Z,102059.56
2023-05-31T04:23:52.829Z,102049.22
2023-05-31T04:26:22.035Z,102051.75
2023-05-31T04:28:53.028Z,102050.13
2023-05-31T04:31:21.541Z,102043.22
2023-05-31T04:33:48.753Z,102052.88
2023-05-31T04:36:15.989Z,102060.66
2023-05-31T04:38:43.213Z,102062.50
2023-05-31T04:41:11.147Z,102053.72
2023-05-31T04:43:40.753Z,102066.78
2023-05-31T04:46:10.450Z,102055.78
2023-05-31T04:48:38.016Z,102064.38
2023-05-31T04:51:05.440Z,102053.34
2023-05-31T04:53:33.706Z,102051.41
2023-05-31T04:56:05.428Z,102042.84
2023-05-31T04:58:32.761Z,102054.19
2023-05-31T05:01:01.580Z,102051.06
2023-05-31T05:03:29.490Z,102044.81
2023-05-31T05:05:58.169Z,102059.13
2023-05-31T05:08:25.873Z,102054.34
2023-05-31T05:10:53.122Z,102052.63
2023-05-31T05:13:20.899Z,102049.91
2023-05-31T05:15:48.157Z,102051.84
2023-05-31T05:18:15.832Z,102056.81
2023-05-31T05:20:43.205Z,102059.00
2023-05-31T05:23:10.803Z,102050.81
2023-05-31T05:25:38.147Z,102056.50
2023-05-31T05:28:05.371Z,102056.19
2023-05-31T05:30:33.432Z,102053.50
2023-05-31T05:33:00.809Z,102047.28
2023-05-31T05:35:28.075Z,102047.81
2023-05-31T05:37:56.357Z,102051.34
2023-05-31T05:40:23.550Z,102044.91
2023-05-31T05:42:51.065Z,102042.47
2023-05-31T05:45:18.325Z,102050.66
2023-05-31T05:47:46.376Z,102048.25
2023-05-31T05:50:13.844Z,102058.19
2023-05-31T05:52:41.286Z,102055.69
2023-05-31T05:55:09.300Z,102050.56
2023-05-31T05:57:36.895Z,102052.91
2023-05-31T06:00:15.114Z,102051.19
2023-05-31T06:02:42.565Z,102054.41
2023-05-31T06:05:10.144Z,102055.25
2023-05-31T06:07:37.391Z,102047.50
2023-05-31T06:10:05.310Z,102045.06
2023-05-31T06:12:32.592Z,102047.72
2023-05-31T06:14:59.798Z,102044.06
2023-05-31T06:17:27.182Z,102047.06
2023-05-31T06:19:54.763Z,102056.00
2023-05-31T06:22:21.977Z,102055.59
2023-05-31T06:24:49.218Z,102047.44
2023-05-31T06:27:16.699Z,102046.13
2023-05-31T06:29:43.929Z,102049.78
2023-05-31T06:32:11.233Z,102049.97
2023-05-31T06:34:38.465Z,102049.44
2023-05-31T06:37:05.904Z,102046.03
2023-05-31T06:39:33.219Z,102044.84
2023-05-31T06:42:01.022Z,102037.09
2023-05-31T06:44:28.799Z,102042.16
2023-05-31T06:46:56.959Z,102048.94
2023-05-31T06:49:24.379Z,102048.94
2023-05-31T06:51:51.639Z,102042.72
2023-05-31T06:54:18.858Z,102050.28
2023-05-31T06:56:46.122Z,102036.19
2023-05-31T06:59:13.763Z,102040.06
2023-05-31T07:01:41.144Z,102035.91
2023-05-31T07:04:08.467Z,102033.69
2023-05-31T07:06:37.150Z,102030.88
2023-05-31T07:09:05.894Z,102025.91
2023-05-31T07:11:33.187Z,102033.53
2023-05-31T07:14:02.517Z,102031.31
2023-05-31T07:16:30.171Z,102021.69
2023-05-31T07:18:57.683Z,102028.47
2023-05-31T07:21:25.389Z,102021.63
2023-05-31T07:23:52.923Z,102019.03
2023-05-31T07:26:20.100Z,102010.59
2023-05-31T07:28:47.538Z,102017.25
2023-05-31T07:31:17.298Z,102011.44
2023-05-31T07:33:45.244Z,102007.09
2023-05-31T07:36:12.683Z,102000.34
2023-05-31T07:38:39.898Z,101990.47
2023-05-31T07:41:07.081Z,101987.06
2023-05-31T07:43:35.569Z,101992.66
2023-05-31T07:46:02.771Z,101993.22
2023-05-31T07:48:30.087Z,101986.81
2023-05-31T07:50:57.336Z,101998.81
2023-05-31T07:53:24.544Z,101984.22
2023-05-31T07:55:51.722Z,101968.34
2023-05-31T07:58:19.040Z,101974.88
2023-05-31T08:00:46.393Z,101975.47
2023-05-31T08:03:15.020Z,101965.22
2023-05-31T08:05:42.269Z,101970.50
2023-05-31T08:08:09.526Z,101968.97
2023-05-31T08:10:36.925Z,101957.97
2023-05-31T08:13:04.125Z,101956.19
2023-05-31T08:15:31.357Z,101955.94
2023-05-31T08:18:00.092Z,101953.59
2023-05-31T08:20:27.710Z,101952.59
2023-05-31T08:22:55.883Z,101951.00
2023-05-31T08:25:23.541Z,101934.06
2023-05-31T08:27:51.438Z,101938.38
2023-05-31T08:30:18.675Z,101934.94
2023-05-31T08:32:46.230Z,101934.94
2023-05-31T08:35:13.483Z,101931.34
2023-05-31T08:37:41.245Z,101932.38
2023-05-31T08:40:09.486Z,101939.22
2023-05-31T08:42:56.345Z,101932.22
2023-05-31T08:45:29.431Z,101928.94
2023-05-31T08:48:21.418Z,101928.94
2023-05-31T08:50:54.066Z,101922.81
2023-05-31T08:53:26.910Z,101936.63
2023-05-31T08:55:55.425Z,101920.28
2023-05-31T08:58:23.966Z,101924.63
2023-05-31T09:00:51.263Z,101922.09
2023-05-31T09:03:19.946Z,101916.06
2023-05-31T09:05:47.312Z,101912.53
2023-05-31T09:08:14.890Z,101905.88
2023-05-31T09:10:42.525Z,101909.28
2023-05-31T09:13:09.981Z,101909.28
2023-05-31T09:15:38.151Z,101904.00
2023-05-31T09:18:17.141Z,101904.13
2023-05-31T09:20:48.552Z,101904.13
2023-05-31T09:23:19.181Z,101905.84
2023-05-31T09:25:49.614Z,101894.69
2023-05-31T09:28:19.737Z,101901.34
2023-05-31T09:30:47.252Z,101882.53
2023-05-31T09:33:14.924Z,101883.94
2023-05-31T09:35:58.283Z,101901.59
2023-05-31T09:38:36.807Z,101892.97
2023-05-31T09:41:21.709Z,101884.13
2023-05-31T09:43:50.967Z,101879.00
2023-05-31T09:46:24.712Z,101869.72
2023-05-31T09:49:04.149Z,101862.41
2023-05-31T09:51:33.521Z,101867.94
2023-05-31T09:54:12.144Z,101859.38
2023-05-31T09:56:41.637Z,101860.16
2023-05-31T09:59:09.567Z,101867.22
2023-05-31T10:01:38.281Z,101850.38
2023-05-31T10:04:07.008Z,101852.16
2023-05-31T10:06:38.707Z,101838.69
2023-05-31T10:09:08.349Z,101840.22
2023-05-31T10:11:42.342Z,101848.03
2023-05-31T10:14:27.023Z,101854.31
2023-05-31T10:17:03.637Z,101841.31
2023-05-31T10:19:52.311Z,101836.81
2023-05-31T10:22:21.603Z,101839.94
2023-05-31T10:24:59.198Z,101837.63
2023-05-31T10:27:35.578Z,101838.50
2023-05-31T10:30:07.593Z,101833.69
2023-05-31T10:32:44.800Z,101839.09
2023-05-31T10:35:12.635Z,101832.00
2023-05-31T10:37:43.850Z,101824.81
2023-05-31T10:40:19.294Z,101823.38
2023-05-31T10:42:58.602Z,101823.44
2023-05-31T10:45:48.052Z,101820.63
2023-05-31T10:48:44.215Z,101826.13
2023-05-31T10:51:13.167Z,101808.69
2023-05-31T10:53:44.411Z,101809.59
2023-05-31T10:56:14.558Z,101810.16
2023-05-31T10:58:48.655Z,101804.53
2023-05-31T11:01:22.765Z,101802.75
2023-05-31T11:03:53.254Z,101804.56
2023-05-31T11:06:33.867Z,101800.31
2023-05-31T11:09:09.513Z,101798.66
2023-05-31T11:11:40.565Z,101802.34
2023-05-31T11:14:30.533Z,101792.84
2023-05-31T11:16:58.640Z,101798.09
2023-05-31T11:19:37.675Z,101792.88
2023-05-31T11:22:09.841Z,101794.69
2023-05-31T11:24:51.756Z,101799.81
2023-05-31T11:27:24.525Z,101792.84
2023-05-31T11:29:51.600Z,101780.88
2023-05-31T11:32:43.422Z,101777.34
2023-05-31T11:35:15.412Z,101773.13
2023-05-31T11:37:44.589Z,101767.81
2023-05-31T11:40:16.405Z,101764.41
2023-05-31T11:42:46.221Z,101765.38
2023-05-31T11:45:18.594Z,101765.53
2023-05-31T11:48:06.960Z,101757.09
2023-05-31T11:50:34.461Z,101749.38
2023-05-31T11:53:07.190Z,101735.44
2023-05-31T11:55:36.356Z,101750.00
2023-05-31T11:58:07.551Z,101734.63
2023-05-31T12:00:35.932Z,101734.66
2023-05-31T12:03:06.378Z,101735.66
2023-05-31T12:05:33.648Z,101724.25
2023-05-31T12:08:01.199Z,101716.56
2023-05-31T12:10:31.694Z,101726.03
2023-05-31T12:13:02.701Z,101719.31
2023-05-31T12:15:32.349Z,101710.66
2023-05-31T12:18:02.729Z,101712.44
2023-05-31T12:20:31.308Z,101708.94
2023-05-31T12:23:16.054Z,101708.25
2023-05-31T12:25:48.195Z,101709.00
2023-05-31T12:28:21.205Z,101698.72
2023-05-31T12:30:50.362Z,101688.47
2023-05-31T12:33:17.654Z,101689.16
2023-05-31T12:35:47.338Z,101695.09
2023-05-31T12:38:15.262Z,101690.13
2023-05-31T12:40:44.618Z,101686.69
2023-05-31T12:43:15.340Z,101679.66
2023-05-31T12:45:43.196Z,101678.13
2023-05-31T12:48:12.105Z,101667.72
2023-05-31T12:50:49.311Z,101672.78
2023-05-31T12:53:17.248Z,101663.22
2023-05-31T12:55:44.932Z,101668.34
2023-05-31T12:58:12.256Z,101677.81
2023-05-31T13:00:39.521Z,101666.66
2023-05-31T13:03:14.259Z,101665.72
2023-05-31T13:05:41.852Z,101669.44
2023-05-31T13:08:09.069Z,101671.34
2023-05-31T13:10:37.330Z,101655.69
2023-05-31T13:13:06.080Z,101661.66
2023-05-31T13:15:33.330Z,101662.91
2023-05-31T13:18:00.726Z,101648.88
2023-05-31T13:20:28.287Z,101647.31
2023-05-31T13:22:58.066Z,101643.88
2023-05-31T13:25:26.420Z,101648.84
2023-05-31T13:28:23.655Z,101635.94
2023-05-31T13:31:09.401Z,101640.34
2023-05-31T13:33:37.791Z,101638.63
2023-05-31T13:36:05.397Z,101632.75
2023-05-31T13:38:33.591Z,101630.00
2023-05-31T13:41:01.611Z,101634.41
2023-05-31T13:43:30.862Z,101642.06
2023-05-31T13:45:59.253Z,101633.41
2023-05-31T13:48:27.475Z,101633.66
2023-05-31T13:50:54.904Z,101629.59
2023-05-31T13:53:23.025Z,101619.06
2023-05-31T13:56:02.367Z,101619.00
2023-05-31T13:58:31.711Z,101618.00
2023-05-31T14:00:59.167Z,101616.56
2023-05-31T14:03:26.668Z,101608.00
2023-05-31T14:05:54.328Z,101610.56
2023-05-31T14:08:23.865Z,101596.97
2023-05-31T14:10:51.773Z,101598.03
2023-05-31T14:13:19.331Z,101595.44
2023-05-31T14:15:47.241Z,101591.84
2023-05-31T14:18:14.765Z,101591.91
2023-05-31T14:20:42.510Z,101582.47
2023-05-31T14:23:10.102Z,101585.06
2023-05-31T14:25:37.497Z,101577.34
2023-05-31T14:28:05.862Z,101564.63
2023-05-31T14:30:40.763Z,101570.53
2023-05-31T14:33:08.363Z,101569.78
2023-05-31T14:35:36.397Z,101561.25
2023-05-31T14:38:13.912Z,101557.84
2023-05-31T14:40:52.930Z,101562.09
2023-05-31T14:43:20.575Z,101556.19
2023-05-31T14:45:48.664Z,101562.16
2023-05-31T14:48:16.400Z,101559.75
2023-05-31T14:50:43.849Z,101549.44
2023-05-31T14:53:15.615Z,101541.63
2023-05-31T14:55:43.244Z,101546.91
2023-05-31T14:58:11.853Z,101540.03
2023-05-31T15:00:39.036Z,101535.69
2023-05-31T15:03:06.297Z,101539.22
2023-05-31T15:05:33.568Z,101537.38
2023-05-31T15:08:00.723Z,101533.22
2023-05-31T15:10:27.952Z,101527.19
2023-05-31T15:12:55.227Z,101525.56
2023-05-31T15:15:22.471Z,101527.28
2023-05-31T15:17:50.150Z,101519.53
2023-05-31T15:20:19.453Z,101513.56
2023-05-31T15:22:46.614Z,101516.16
2023-05-31T15:25:15.639Z,101505.88
2023-05-31T15:27:43.611Z,101502.47
2023-05-31T15:30:11.346Z,101504.09
2023-05-31T15:32:38.555Z,101499.88
2023-05-31T15:35:06.468Z,101499.88
2023-05-31T15:37:34.534Z,101500.72
2023-05-31T15:40:01.824Z,101499.06
2023-05-31T15:42:29.045Z,101498.16
2023-05-31T15:44:56.243Z,101486.22
2023-05-31T15:47:23.520Z,101483.66
2023-05-31T15:49:50.769Z,101481.19
2023-05-31T15:52:18.181Z,101478.56
2023-05-31T15:54:45.469Z,101475.09
2023-05-31T15:57:12.662Z,101470.00
2023-05-31T15:59:39.848Z,101470.00
2023-05-31T16:02:07.483Z,101466.63
2023-05-31T16:04:34.722Z,101468.16
2023-05-31T16:07:01.919Z,101461.28
2023-05-31T16:09:29.101Z,101465.59
2023-05-31T16:11:56.413Z,101463.25
2023-05-31T16:14:23.588Z,101463.19
2023-05-31T16:16:50.828Z,101460.59
2023-05-31T16:19:18.092Z,101454.72
2023-05-31T16:21:45.302Z,101450.41
2023-05-31T16:24:13.644Z,101458.16
2023-05-31T16:26:40.987Z,101449.59
2023-05-31T16:29:10.478Z,101444.44
2023-05-31T16:31:38.077Z,101442.78
2023-05-31T16:34:05.450Z,101441.06
2023-05-31T16:36:32.978Z,101446.13
2023-05-31T16:39:05.120Z,101444.44
2023-05-31T16:41:32.422Z,101443.56
2023-05-31T16:43:59.596Z,101449.66
2023-05-31T16:46:27.159Z,101439.41
2023-05-31T16:48:54.773Z,101442.88
2023-05-31T16:51:22.514Z,101442.88
2023-05-31T16:53:49.692Z,101436.91
2023-05-31T16:56:16.945Z,101442.03
2023-05-31T16:58:44.176Z,101429.22
2023-05-31T17:01:11.371Z,101434.34
2023-05-31T17:03:38.628Z,101433.47
2023-05-31T17:06:05.938Z,101425.81
2023-05-31T17:08:33.166Z,101436.03
2023-05-31T17:11:00.698Z,101435.22
2023-05-31T17:13:27.871Z,101430.06
2023-05-31T17:15:55.061Z,101442.78
2023-05-31T17:18:22.284Z,101425.72
2023-05-31T17:20:49.662Z,101424.97
2023-05-31T17:23:16.874Z,101417.28
2023-05-31T17:25:44.414Z,101411.25
2023-05-31T17:28:11.616Z,101414.72
2023-05-31T17:30:38.870Z,101404.50
2023-05-31T17:33:06.212Z,101410.47
2023-05-31T17:35:33.455Z,101411.31
2023-05-31T17:38:00.731Z,101409.59
2023-05-31T17:40:27.901Z,101401.94
2023-05-31T17:42:55.172Z,101398.56
2023-05-31T17:45:22.444Z,101400.13
2023-05-31T17:47:49.941Z,101397.59
2023-05-31T17:50:18.310Z,101395.06
2023-05-31T17:52:46.189Z,101404.50
2023-05-31T17:55:13.386Z,101399.28
2023-05-31T17:57:45.142Z,101400.13
2023-05-31T18:00:13.268Z,101394.09
2023-05-31T18:02:40.623Z,101388.13
2023-05-31T18:05:08.309Z,101390.00
2023-05-31T18:07:36.061Z,101385.75
2023-05-31T18:10:04.595Z,101384.81
2023-05-31T18:12:31.851Z,101384.88
2023-05-31T18:14:59.039Z,101386.59
2023-05-31T18:17:27.203Z,101382.28
2023-05-31T18:19:55.134Z,101389.84
2023-05-31T18:22:22.323Z,101387.34
2023-05-31T18:24:49.513Z,101384.84
2023-05-31T18:27:22.440Z,101390.00
2023-05-31T18:29:50.395Z,101386.50
2023-05-31T18:32:22.216Z,101385.63
2023-05-31T18:34:49.537Z,101381.38
2023-05-31T18:37:17.062Z,101386.50
2023-05-31T18:39:44.569Z,101385.66
2023-05-31T18:42:12.058Z,101382.22
2023-05-31T18:44:39.433Z,101381.41
2023-05-31T18:47:22.350Z,101380.47
2023-05-31T18:49:50.376Z,101388.00
2023-05-31T18:52:18.090Z,101385.63
2023-05-31T18:54:46.469Z,101388.13
2023-05-31T18:57:15.361Z,101392.22
2023-05-31T18:59:43.651Z,101394.84
2023-05-31T19:02:11.620Z,101394.84
2023-05-31T19:04:39.884Z,101398.22
2023-05-31T19:07:08.141Z,101393.13
2023-05-31T19:09:39.520Z,101398.91
2023-05-31T19:12:30.635Z,101398.00
2023-05-31T19:15:00.430Z,101403.84
2023-05-31T19:17:29.433Z,101397.22
2023-05-31T19:19:57.743Z,101404.72
2023-05-31T19:22:25.274Z,101392.59
2023-05-31T19:24:54.195Z,101410.13
2023-05-31T19:27:24.523Z,101407.72
2023-05-31T19:29:52.497Z,101412.47
2023-05-31T19:32:20.576Z,101421.75
2023-05-31T19:34:49.216Z,101423.41
2023-05-31T19:37:16.420Z,101427.81
2023-05-31T19:39:43.609Z,101423.53
2023-05-31T19:42:11.901Z,101427.59
2023-05-31T19:44:39.145Z,101431.88
2023-05-31T19:47:06.618Z,101436.88
2023-05-31T19:49:33.843Z,101431.84
2023-05-31T19:52:01.144Z,101442.88
2023-05-31T19:54:28.338Z,101444.31
2023-05-31T19:56:55.664Z,101444.19
2023-05-31T19:59:22.938Z,101441.69
2023-05-31T20:01:50.214Z,101446.16
2023-05-31T20:04:17.599Z,101448.63
2023-05-31T20:06:44.937Z,101455.44
2023-05-31T20:09:12.130Z,101454.19
2023-05-31T20:11:39.550Z,101457.75
2023-05-31T20:14:06.812Z,101452.22
2023-05-31T20:16:34.101Z,101445.03
2023-05-31T20:19:01.633Z,101459.91
2023-05-31T20:21:28.926Z,101461.50
2023-05-31T20:23:56.583Z,101455.41
2023-05-31T20:26:23.861Z,101456.69
2023-05-31T20:28:51.264Z,101456.53
2023-05-31T20:31:18.621Z,101447.91
2023-05-31T20:33:46.198Z,101447.28
2023-05-31T20:36:13.440Z,101451.63
2023-05-31T20:38:40.775Z,101451.34
2023-05-31T20:41:08.067Z,101455.41
2023-05-31T20:43:35.556Z,101462.06
2023-05-31T20:46:03.065Z,101462.59
2023-05-31T20:48:31.151Z,101455.75
2023-05-31T20:50:58.573Z,101450.03
2023-05-31T20:53:26.674Z,101456.88
2023-05-31T20:55:54.522Z,101456.53
2023-05-31T20:58:22.120Z,101456.41
2023-05-31T21:00:49.866Z,101461.28
2023-05-31T21:03:17.283Z,101458.09
2023-05-31T21:05:44.481Z,101457.22
2023-05-31T21:08:11.717Z,101458.09
2023-05-31T21:10:38.981Z,101455.78
2023-05-31T21:13:06.187Z,101467.59
2023-05-31T21:15:33.385Z,101465.13
2023-05-31T21:18:00.673Z,101461.44
2023-05-31T21:20:27.898Z,101457.63
2023-05-31T21:22:55.602Z,101467.22
2023-05-31T21:25:25.289Z,101458.88
2023-05-31T21:27:53.772Z,101467.13
2023-05-31T21:30:24.728Z,101472.34
2023-05-31T21:32:52.575Z,101466.31
2023-05-31T21:35:20.351Z,101461.91
2023-05-31T21:37:47.560Z,101463.78
2023-05-31T21:40:14.836Z,101462.06
2023-05-31T21:42:42.046Z,101465.13
2023-05-31T21:45:09.642Z,101470.50
2023-05-31T21:47:36.885Z,101468.84
2023-05-31T21:50:04.457Z,101467.34
2023-05-31T21:52:32.751Z,101467.72
2023-05-31T21:55:00.483Z,101471.75
2023-05-31T21:57:27.718Z,101466.88
2023-05-31T21:59:54.948Z,101474.50
2023-05-31T22:02:22.142Z,101478.03
2023-05-31T22:04:49.351Z,101479.00
2023-05-31T22:07:16.673Z,101480.06
2023-05-31T22:09:44.611Z,101483.50
2023-05-31T22:12:11.813Z,101475.34
2023-05-31T22:14:39.085Z,101485.53
2023-05-31T22:17:07.315Z,101478.66
2023-05-31T22:19:38.176Z,101477.81
2023-05-31T22:22:06.636Z,101472.13
2023-05-31T22:24:34.114Z,101477.56
2023-05-31T22:27:01.524Z,101468.84
2023-05-31T22:29:29.368Z,101470.38
2023-05-31T22:31:56.727Z,101476.41
2023-05-31T22:34:25.619Z,101481.19
2023-05-31T22:36:53.183Z,101472.19
2023-05-31T22:39:20.562Z,101480.75
2023-05-31T22:41:47.755Z,101478.97
2023-05-31T22:44:14.968Z,101479.34
2023-05-31T22:46:42.232Z,101484.41
2023-05-31T22:49:09.448Z,101487.47
2023-05-31T22:51:37.067Z,101496.94
2023-05-31T22:54:04.285Z,101507.72
2023-05-31T22:56:31.578Z,101505.63
2023-05-31T22:58:58.757Z,101509.38
2023-05-31T23:01:26.222Z,101516.13
2023-05-31T23:03:53.498Z,101512.22
2023-05-31T23:06:22.385Z,101509.81
2023-05-31T23:08:50.139Z,101510.19
2023-05-31T23:11:17.806Z,101514.69
2023-05-31T23:13:46.102Z,101514.94
2023-05-31T23:16:13.339Z,101513.41
2023-05-31T23:18:41.671Z,101514.56
2023-05-31T23:21:10.184Z,101525.28
2023-05-31T23:23:37.428Z,101519.00
2023-05-31T23:26:04.786Z,101529.97
2023-05-31T23:28:31.986Z,101525.13
2023-05-31T23:30:59.332Z,101524.25
2023-05-31T23:33:26.722Z,101532.66
2023-05-31T23:35:53.902Z,101531.78
2023-05-31T23:38:21.117Z,101536.59
2023-05-31T23:40:48.311Z,101541.09
2023-05-31T23:43:15.542Z,101551.84
2023-05-31T23:45:42.818Z,101547.78
2023-05-31T23:48:10.128Z,101553.06
2023-05-31T23:50:37.450Z,101545.00
2023-05-31T23:53:04.661Z,101541.34
2023-05-31T23:55:31.887Z,101552.97
2023-05-31T23:57:59.120Z,101535.34
